sensor_id;sensor_type;location;lat;lon;timestamp;temperature;humidity
55173;DHT22;41061;52.822;6.860;2022-08-20T00:00:58;19.80;99.90
55173;DHT22;41061;52.822;6.860;2022-08-20T00:03:30;19.70;99.90
55173;DHT22;41061;52.822;6.860;2022-08-20T00:06:04;19.70;99.90
55173;DHT22;41061;52.822;6.860;2022-08-20T00:08:31;19.70;99.90
55173;DHT22;41061;52.822;6.860;2022-08-20T00:10:58;19.70;99.90
55173;DHT22;41061;52.822;6.860;2022-08-20T00:13:30;19.60;99.90
55173;DHT22;41061;52.822;6.860;2022-08-20T00:15:55;19.60;99.90
55173;DHT22;41061;52.822;6.860;2022-08-20T00:18:22;19.60;99.90
55173;DHT22;41061;52.822;6.860;2022-08-20T00:20:51;19.60;99.90
55173;DHT22;41061;52.822;6.860;2022-08-20T00:23:18;19.60;99.90
55173;DHT22;41061;52.822;6.860;2022-08-20T00:25:44;19.50;99.90
55173;DHT22;41061;52.822;6.860;2022-08-20T00:28:11;19.50;99.90
55173;DHT22;41061;52.822;6.860;2022-08-20T00:30:39;19.50;99.90
55173;DHT22;41061;52.822;6.860;2022-08-20T00:33:08;19.50;99.90
55173;DHT22;41061;52.822;6.860;2022-08-20T00:35:37;19.50;99.90
55173;DHT22;41061;52.822;6.860;2022-08-20T00:38:05;19.50;99.90
55173;DHT22;41061;52.822;6.860;2022-08-20T00:40:42;19.50;99.90
55173;DHT22;41061;52.822;6.860;2022-08-20T00:43:28;19.50;99.90
55173;DHT22;41061;52.822;6.860;2022-08-20T00:45:55;19.50;99.90
55173;DHT22;41061;52.822;6.860;2022-08-20T00:48:28;19.50;99.90
55173;DHT22;41061;52.822;6.860;2022-08-20T00:51:05;19.50;99.90
55173;DHT22;41061;52.822;6.860;2022-08-20T00:53:32;19.40;99.90
55173;DHT22;41061;52.822;6.860;2022-08-20T00:55:59;19.40;99.90
55173;DHT22;41061;52.822;6.860;2022-08-20T00:58:25;19.40;99.90
55173;DHT22;41061;52.822;6.860;2022-08-20T01:00:53;19.40;99.90
55173;DHT22;41061;52.822;6.860;2022-08-20T01:03:19;19.50;99.90
55173;DHT22;41061;52.822;6.860;2022-08-20T01:05:48;19.40;99.90
55173;DHT22;41061;52.822;6.860;2022-08-20T01:08:16;19.40;99.90
55173;DHT22;41061;52.822;6.860;2022-08-20T01:10:43;19.40;99.90
55173;DHT22;41061;52.822;6.860;2022-08-20T01:13:16;19.40;99.90
55173;DHT22;41061;52.822;6.860;2022-08-20T01:15:48;19.40;99.90
55173;DHT22;41061;52.822;6.860;2022-08-20T01:18:19;19.40;99.90
55173;DHT22;41061;52.822;6.860;2022-08-20T01:20:50;19.40;99.90
55173;DHT22;41061;52.822;6.860;2022-08-20T01:23:39;19.40;99.90
55173;DHT22;41061;52.822;6.860;2022-08-20T01:28:51;19.40;99.90
55173;DHT22;41061;52.822;6.860;2022-08-20T01:31:26;19.40;99.90
55173;DHT22;41061;52.822;6.860;2022-08-20T01:33:54;19.40;99.90
55173;DHT22;41061;52.822;6.860;2022-08-20T01:36:41;19.40;99.90
55173;DHT22;41061;52.822;6.860;2022-08-20T01:39:09;19.30;99.90
55173;DHT22;41061;52.822;6.860;2022-08-20T01:41:46;19.30;99.90
55173;DHT22;41061;52.822;6.860;2022-08-20T01:44:14;19.30;99.90
55173;DHT22;41061;52.822;6.860;2022-08-20T01:46:42;19.30;99.90
55173;DHT22;41061;52.822;6.860;2022-08-20T01:49:21;19.20;99.90
55173;DHT22;41061;52.822;6.860;2022-08-20T01:51:48;19.20;99.90
55173;DHT22;41061;52.822;6.860;2022-08-20T01:54:14;19.10;99.90
55173;DHT22;41061;52.822;6.860;2022-08-20T01:56:59;19.10;99.90
55173;DHT22;41061;52.822;6.860;2022-08-20T01:59:26;19.10;99.90
55173;DHT22;41061;52.822;6.860;2022-08-20T02:01:54;19.10;99.90
55173;DHT22;41061;52.822;6.860;2022-08-20T02:04:20;19.10;99.90
55173;DHT22;41061;52.822;6.860;2022-08-20T02:06:52;19.00;99.90
55173;DHT22;41061;52.822;6.860;2022-08-20T02:09:19;19.00;99.90
55173;DHT22;41061;52.822;6.860;2022-08-20T02:11:44;19.00;99.90
55173;DHT22;41061;52.822;6.860;2022-08-20T02:14:12;19.00;99.90
55173;DHT22;41061;52.822;6.860;2022-08-20T02:16:41;19.00;99.90
55173;DHT22;41061;52.822;6.860;2022-08-20T02:19:11;19.10;99.90
55173;DHT22;41061;52.822;6.860;2022-08-20T02:21:41;19.00;99.90
55173;DHT22;41061;52.822;6.860;2022-08-20T02:24:09;19.00;99.90
55173;DHT22;41061;52.822;6.860;2022-08-20T02:26:35;19.00;99.90
55173;DHT22;41061;52.822;6.860;2022-08-20T02:29:04;18.90;99.90
55173;DHT22;41061;52.822;6.860;2022-08-20T02:31:31;18.90;99.90
55173;DHT22;41061;52.822;6.860;2022-08-20T02:33:57;18.90;99.90
55173;DHT22;41061;52.822;6.860;2022-08-20T02:36:22;18.90;99.90
55173;DHT22;41061;52.822;6.860;2022-08-20T02:38:49;18.80;99.90
55173;DHT22;41061;52.822;6.860;2022-08-20T02:41:15;18.80;99.90
55173;DHT22;41061;52.822;6.860;2022-08-20T02:43:41;18.80;99.90
55173;DHT22;41061;52.822;6.860;2022-08-20T02:46:08;18.70;99.90
55173;DHT22;41061;52.822;6.860;2022-08-20T02:48:34;18.80;99.90
55173;DHT22;41061;52.822;6.860;2022-08-20T02:51:02;18.70;99.90
55173;DHT22;41061;52.822;6.860;2022-08-20T02:53:31;18.70;99.90
55173;DHT22;41061;52.822;6.860;2022-08-20T02:55:57;18.70;99.90
55173;DHT22;41061;52.822;6.860;2022-08-20T02:58:24;18.70;99.90
55173;DHT22;41061;52.822;6.860;2022-08-20T03:00:50;18.70;99.90
55173;DHT22;41061;52.822;6.860;2022-08-20T03:03:16;18.70;99.90
55173;DHT22;41061;52.822;6.860;2022-08-20T03:05:48;18.60;99.90
55173;DHT22;41061;52.822;6.860;2022-08-20T03:08:15;18.50;99.90
55173;DHT22;41061;52.822;6.860;2022-08-20T03:10:44;18.50;99.90
55173;DHT22;41061;52.822;6.860;2022-08-20T03:13:10;18.50;99.90
55173;DHT22;41061;52.822;6.860;2022-08-20T03:15:39;18.50;99.90
55173;DHT22;41061;52.822;6.860;2022-08-20T03:18:06;18.40;99.90
55173;DHT22;41061;52.822;6.860;2022-08-20T03:20:32;18.40;99.90
55173;DHT22;41061;52.822;6.860;2022-08-20T03:22:58;18.40;99.90
55173;DHT22;41061;52.822;6.860;2022-08-20T03:25:24;18.30;99.90
55173;DHT22;41061;52.822;6.860;2022-08-20T03:27:50;18.30;99.90
55173;DHT22;41061;52.822;6.860;2022-08-20T03:30:17;18.30;99.90
55173;DHT22;41061;52.822;6.860;2022-08-20T03:32:44;18.30;99.90
55173;DHT22;41061;52.822;6.860;2022-08-20T03:35:11;18.20;99.90
55173;DHT22;41061;52.822;6.860;2022-08-20T03:37:38;18.20;99.90
55173;DHT22;41061;52.822;6.860;2022-08-20T03:40:08;18.20;99.90
55173;DHT22;41061;52.822;6.860;2022-08-20T03:42:34;18.20;99.90
55173;DHT22;41061;52.822;6.860;2022-08-20T03:45:00;18.10;99.90
55173;DHT22;41061;52.822;6.860;2022-08-20T03:47:26;18.10;99.90
55173;DHT22;41061;52.822;6.860;2022-08-20T03:49:56;18.10;99.90
55173;DHT22;41061;52.822;6.860;2022-08-20T03:52:21;18.10;99.90
55173;DHT22;41061;52.822;6.860;2022-08-20T03:54:47;18.00;99.90
55173;DHT22;41061;52.822;6.860;2022-08-20T03:57:14;18.00;99.90
55173;DHT22;41061;52.822;6.860;2022-08-20T03:59:42;18.00;99.90
55173;DHT22;41061;52.822;6.860;2022-08-20T04:02:10;17.90;99.90
55173;DHT22;41061;52.822;6.860;2022-08-20T04:04:37;17.90;99.90
55173;DHT22;41061;52.822;6.860;2022-08-20T04:07:20;17.80;99.90
55173;DHT22;41061;52.822;6.860;2022-08-20T04:09:54;17.80;99.90
55173;DHT22;41061;52.822;6.860;2022-08-20T04:12:21;17.80;99.90
55173;DHT22;41061;52.822;6.860;2022-08-20T04:14:47;17.70;99.90
55173;DHT22;41061;52.822;6.860;2022-08-20T04:17:14;17.70;99.90
55173;DHT22;41061;52.822;6.860;2022-08-20T04:19:41;17.70;99.90
55173;DHT22;41061;52.822;6.860;2022-08-20T04:22:08;17.70;99.90
55173;DHT22;41061;52.822;6.860;2022-08-20T04:24:35;17.70;99.90
55173;DHT22;41061;52.822;6.860;2022-08-20T04:27:02;17.70;99.90
55173;DHT22;41061;52.822;6.860;2022-08-20T04:29:30;17.60;99.90
55173;DHT22;41061;52.822;6.860;2022-08-20T04:31:58;17.60;99.90
55173;DHT22;41061;52.822;6.860;2022-08-20T04:34:24;17.60;99.90
55173;DHT22;41061;52.822;6.860;2022-08-20T04:36:50;17.60;99.90
55173;DHT22;41061;52.822;6.860;2022-08-20T04:39:17;17.50;99.90
55173;DHT22;41061;52.822;6.860;2022-08-20T04:41:43;17.50;99.90
55173;DHT22;41061;52.822;6.860;2022-08-20T04:44:10;17.50;99.90
55173;DHT22;41061;52.822;6.860;2022-08-20T04:46:37;17.50;99.90
55173;DHT22;41061;52.822;6.860;2022-08-20T04:49:03;17.50;99.90
55173;DHT22;41061;52.822;6.860;2022-08-20T04:51:30;17.40;99.90
55173;DHT22;41061;52.822;6.860;2022-08-20T04:53:56;17.40;99.90
55173;DHT22;41061;52.822;6.860;2022-08-20T04:56:29;17.40;99.90
55173;DHT22;41061;52.822;6.860;2022-08-20T04:58:57;17.50;99.90
55173;DHT22;41061;52.822;6.860;2022-08-20T05:01:24;17.50;99.90
55173;DHT22;41061;52.822;6.860;2022-08-20T05:03:51;17.50;99.90
55173;DHT22;41061;52.822;6.860;2022-08-20T05:06:19;17.50;99.90
55173;DHT22;41061;52.822;6.860;2022-08-20T05:08:46;17.50;99.90
55173;DHT22;41061;52.822;6.860;2022-08-20T05:11:12;17.50;99.90
55173;DHT22;41061;52.822;6.860;2022-08-20T05:13:39;17.50;99.90
55173;DHT22;41061;52.822;6.860;2022-08-20T05:16:05;17.40;99.90
55173;DHT22;41061;52.822;6.860;2022-08-20T05:18:31;17.40;99.90
55173;DHT22;41061;52.822;6.860;2022-08-20T05:20:58;17.40;99.90
55173;DHT22;41061;52.822;6.860;2022-08-20T05:23:34;17.40;99.90
55173;DHT22;41061;52.822;6.860;2022-08-20T05:26:02;17.40;99.90
55173;DHT22;41061;52.822;6.860;2022-08-20T05:28:32;17.30;99.90
55173;DHT22;41061;52.822;6.860;2022-08-20T05:30:59;17.30;99.90
55173;DHT22;41061;52.822;6.860;2022-08-20T05:33:26;17.20;99.90
55173;DHT22;41061;52.822;6.860;2022-08-20T05:35:53;17.20;99.90
55173;DHT22;41061;52.822;6.860;2022-08-20T05:38:22;17.20;99.90
55173;DHT22;41061;52.822;6.860;2022-08-20T05:40:49;17.20;99.90
55173;DHT22;41061;52.822;6.860;2022-08-20T05:43:16;17.20;99.90
55173;DHT22;41061;52.822;6.860;2022-08-20T05:45:44;17.20;99.90
55173;DHT22;41061;52.822;6.860;2022-08-20T05:48:15;17.20;99.90
55173;DHT22;41061;52.822;6.860;2022-08-20T05:50:43;17.20;99.90
55173;DHT22;41061;52.822;6.860;2022-08-20T05:53:10;17.20;99.90
55173;DHT22;41061;52.822;6.860;2022-08-20T05:55:37;17.20;99.90
55173;DHT22;41061;52.822;6.860;2022-08-20T05:58:05;17.20;99.90
55173;DHT22;41061;52.822;6.860;2022-08-20T06:00:32;17.20;99.90
55173;DHT22;41061;52.822;6.860;2022-08-20T06:02:57;17.20;99.90
55173;DHT22;41061;52.822;6.860;2022-08-20T06:05:42;17.10;99.90
55173;DHT22;41061;52.822;6.860;2022-08-20T06:08:10;17.20;99.90
55173;DHT22;41061;52.822;6.860;2022-08-20T06:10:37;17.20;99.90
55173;DHT22;41061;52.822;6.860;2022-08-20T06:13:03;17.20;99.90
55173;DHT22;41061;52.822;6.860;2022-08-20T06:15:30;17.20;99.90
55173;DHT22;41061;52.822;6.860;2022-08-20T06:17:56;17.20;99.90
55173;DHT22;41061;52.822;6.860;2022-08-20T06:20:22;17.20;99.90
55173;DHT22;41061;52.822;6.860;2022-08-20T06:22:48;17.30;99.90
55173;DHT22;41061;52.822;6.860;2022-08-20T06:25:13;17.40;99.90
55173;DHT22;41061;52.822;6.860;2022-08-20T06:30:11;17.60;99.90
55173;DHT22;41061;52.822;6.860;2022-08-20T06:32:37;17.80;99.90
55173;DHT22;41061;52.822;6.860;2022-08-20T06:35:05;17.80;99.90
55173;DHT22;41061;52.822;6.860;2022-08-20T06:37:33;17.90;99.90
55173;DHT22;41061;52.822;6.860;2022-08-20T06:40:08;18.10;99.90
55173;DHT22;41061;52.822;6.860;2022-08-20T06:42:35;17.90;99.90
55173;DHT22;41061;52.822;6.860;2022-08-20T06:45:01;17.90;99.90
55173;DHT22;41061;52.822;6.860;2022-08-20T06:47:31;17.90;99.90
55173;DHT22;41061;52.822;6.860;2022-08-20T06:49:57;18.20;99.90
55173;DHT22;41061;52.822;6.860;2022-08-20T06:52:23;18.00;99.90
55173;DHT22;41061;52.822;6.860;2022-08-20T06:54:48;18.00;99.90
55173;DHT22;41061;52.822;6.860;2022-08-20T06:59:41;18.00;99.90
55173;DHT22;41061;52.822;6.860;2022-08-20T07:02:07;18.10;99.90
55173;DHT22;41061;52.822;6.860;2022-08-20T07:04:33;18.10;99.90
55173;DHT22;41061;52.822;6.860;2022-08-20T07:06:59;18.10;99.90
55173;DHT22;41061;52.822;6.860;2022-08-20T07:09:25;18.10;99.90
55173;DHT22;41061;52.822;6.860;2022-08-20T07:11:51;18.30;99.90
55173;DHT22;41061;52.822;6.860;2022-08-20T07:14:17;18.40;99.90
55173;DHT22;41061;52.822;6.860;2022-08-20T07:16:44;18.50;99.90
55173;DHT22;41061;52.822;6.860;2022-08-20T07:19:12;18.50;99.90
55173;DHT22;41061;52.822;6.860;2022-08-20T07:21:39;18.50;99.90
55173;DHT22;41061;52.822;6.860;2022-08-20T07:24:05;18.60;99.90
55173;DHT22;41061;52.822;6.860;2022-08-20T07:26:31;18.70;99.90
55173;DHT22;41061;52.822;6.860;2022-08-20T07:28:57;18.80;99.90
55173;DHT22;41061;52.822;6.860;2022-08-20T07:31:23;18.80;99.90
55173;DHT22;41061;52.822;6.860;2022-08-20T07:34:07;18.90;99.90
55173;DHT22;41061;52.822;6.860;2022-08-20T07:36:35;18.90;99.90
55173;DHT22;41061;52.822;6.860;2022-08-20T07:39:00;18.80;99.90
55173;DHT22;41061;52.822;6.860;2022-08-20T07:41:26;18.80;99.90
55173;DHT22;41061;52.822;6.860;2022-08-20T07:43:52;18.70;99.90
55173;DHT22;41061;52.822;6.860;2022-08-20T07:46:19;18.70;99.90
55173;DHT22;41061;52.822;6.860;2022-08-20T07:48:46;18.70;99.90
55173;DHT22;41061;52.822;6.860;2022-08-20T07:51:15;18.70;99.90
55173;DHT22;41061;52.822;6.860;2022-08-20T07:53:42;18.80;99.90
55173;DHT22;41061;52.822;6.860;2022-08-20T07:56:12;19.00;99.90
55173;DHT22;41061;52.822;6.860;2022-08-20T07:58:42;19.10;99.90
55173;DHT22;41061;52.822;6.860;2022-08-20T08:01:08;19.20;99.90
55173;DHT22;41061;52.822;6.860;2022-08-20T08:03:35;19.30;99.90
55173;DHT22;41061;52.822;6.860;2022-08-20T08:06:02;19.50;99.90
55173;DHT22;41061;52.822;6.860;2022-08-20T08:08:28;19.60;99.90
55173;DHT22;41061;52.822;6.860;2022-08-20T08:10:58;19.70;99.90
55173;DHT22;41061;52.822;6.860;2022-08-20T08:13:26;19.70;99.90
55173;DHT22;41061;52.822;6.860;2022-08-20T08:15:55;19.70;99.90
55173;DHT22;41061;52.822;6.860;2022-08-20T08:18:25;19.70;99.90
55173;DHT22;41061;52.822;6.860;2022-08-20T08:20:52;19.80;99.90
55173;DHT22;41061;52.822;6.860;2022-08-20T08:23:21;19.80;99.90
55173;DHT22;41061;52.822;6.860;2022-08-20T08:25:47;19.80;99.90
55173;DHT22;41061;52.822;6.860;2022-08-20T08:28:14;19.90;99.90
55173;DHT22;41061;52.822;6.860;2022-08-20T08:30:41;19.90;99.90
55173;DHT22;41061;52.822;6.860;2022-08-20T08:33:17;20.00;99.90
55173;DHT22;41061;52.822;6.860;2022-08-20T08:35:53;20.00;99.90
55173;DHT22;41061;52.822;6.860;2022-08-20T08:38:21;20.10;99.90
55173;DHT22;41061;52.822;6.860;2022-08-20T08:40:51;20.10;99.90
55173;DHT22;41061;52.822;6.860;2022-08-20T08:43:19;20.10;99.90
55173;DHT22;41061;52.822;6.860;2022-08-20T08:45:57;20.30;99.90
55173;DHT22;41061;52.822;6.860;2022-08-20T08:48:27;20.50;99.90
55173;DHT22;41061;52.822;6.860;2022-08-20T08:50:56;20.70;99.90
55173;DHT22;41061;52.822;6.860;2022-08-20T08:53:30;21.00;99.90
55173;DHT22;41061;52.822;6.860;2022-08-20T08:55:58;21.00;99.90
55173;DHT22;41061;52.822;6.860;2022-08-20T08:58:24;21.20;99.90
55173;DHT22;41061;52.822;6.860;2022-08-20T09:00:52;21.40;99.90
55173;DHT22;41061;52.822;6.860;2022-08-20T09:03:30;21.50;99.90
55173;DHT22;41061;52.822;6.860;2022-08-20T09:05:59;21.50;99.90
55173;DHT22;41061;52.822;6.860;2022-08-20T09:08:31;21.40;99.90
55173;DHT22;41061;52.822;6.860;2022-08-20T09:11:03;21.40;99.90
55173;DHT22;41061;52.822;6.860;2022-08-20T09:13:29;21.60;99.90
55173;DHT22;41061;52.822;6.860;2022-08-20T09:15:55;21.50;99.90
55173;DHT22;41061;52.822;6.860;2022-08-20T09:18:21;21.50;99.90
55173;DHT22;41061;52.822;6.860;2022-08-20T09:20:46;21.60;99.90
55173;DHT22;41061;52.822;6.860;2022-08-20T09:23:12;21.60;99.90
55173;DHT22;41061;52.822;6.860;2022-08-20T09:25:39;21.60;99.90
55173;DHT22;41061;52.822;6.860;2022-08-20T09:28:05;21.50;99.90
55173;DHT22;41061;52.822;6.860;2022-08-20T09:30:31;21.50;99.90
55173;DHT22;41061;52.822;6.860;2022-08-20T09:32:59;21.50;99.90
55173;DHT22;41061;52.822;6.860;2022-08-20T09:35:26;21.70;99.90
55173;DHT22;41061;52.822;6.860;2022-08-20T09:37:51;21.80;99.90
55173;DHT22;41061;52.822;6.860;2022-08-20T09:40:18;21.90;99.90
55173;DHT22;41061;52.822;6.860;2022-08-20T09:42:44;22.10;99.90
55173;DHT22;41061;52.822;6.860;2022-08-20T09:45:11;22.20;99.90
55173;DHT22;41061;52.822;6.860;2022-08-20T09:47:37;22.30;99.90
55173;DHT22;41061;52.822;6.860;2022-08-20T09:50:04;22.60;99.90
55173;DHT22;41061;52.822;6.860;2022-08-20T09:52:36;22.60;99.90
55173;DHT22;41061;52.822;6.860;2022-08-20T09:57:53;22.90;99.90
55173;DHT22;41061;52.822;6.860;2022-08-20T10:00:19;23.20;99.90
55173;DHT22;41061;52.822;6.860;2022-08-20T10:02:45;23.30;99.90
55173;DHT22;41061;52.822;6.860;2022-08-20T10:05:11;23.40;99.90
55173;DHT22;41061;52.822;6.860;2022-08-20T10:07:38;23.50;99.90
55173;DHT22;41061;52.822;6.860;2022-08-20T10:10:06;23.60;99.90
55173;DHT22;41061;52.822;6.860;2022-08-20T10:12:32;23.70;99.90
55173;DHT22;41061;52.822;6.860;2022-08-20T10:14:58;23.80;99.90
55173;DHT22;41061;52.822;6.860;2022-08-20T10:17:23;23.90;99.90
55173;DHT22;41061;52.822;6.860;2022-08-20T10:19:49;24.00;99.90
55173;DHT22;41061;52.822;6.860;2022-08-20T10:22:15;24.20;99.90
55173;DHT22;41061;52.822;6.860;2022-08-20T10:24:40;24.30;99.90
55173;DHT22;41061;52.822;6.860;2022-08-20T10:27:06;24.30;99.90
55173;DHT22;41061;52.822;6.860;2022-08-20T10:29:31;24.50;99.90
55173;DHT22;41061;52.822;6.860;2022-08-20T10:32:10;24.60;99.90
55173;DHT22;41061;52.822;6.860;2022-08-20T10:34:38;24.60;99.90
55173;DHT22;41061;52.822;6.860;2022-08-20T10:37:04;24.40;99.90
55173;DHT22;41061;52.822;6.860;2022-08-20T10:39:30;24.30;99.90
55173;DHT22;41061;52.822;6.860;2022-08-20T10:41:56;24.10;99.90
55173;DHT22;41061;52.822;6.860;2022-08-20T10:44:21;24.00;99.90
55173;DHT22;41061;52.822;6.860;2022-08-20T10:46:47;23.90;99.90
55173;DHT22;41061;52.822;6.860;2022-08-20T10:49:13;23.90;99.90
55173;DHT22;41061;52.822;6.860;2022-08-20T10:51:38;24.00;99.90
55173;DHT22;41061;52.822;6.860;2022-08-20T10:54:05;24.10;99.90
55173;DHT22;41061;52.822;6.860;2022-08-20T10:56:31;24.40;99.90
55173;DHT22;41061;52.822;6.860;2022-08-20T10:58:56;24.60;99.90
55173;DHT22;41061;52.822;6.860;2022-08-20T11:01:22;24.70;99.90
55173;DHT22;41061;52.822;6.860;2022-08-20T11:03:48;25.00;99.90
55173;DHT22;41061;52.822;6.860;2022-08-20T11:06:13;25.00;99.90
55173;DHT22;41061;52.822;6.860;2022-08-20T11:08:39;25.10;99.90
55173;DHT22;41061;52.822;6.860;2022-08-20T11:11:05;25.30;99.90
55173;DHT22;41061;52.822;6.860;2022-08-20T11:13:33;25.50;99.90
55173;DHT22;41061;52.822;6.860;2022-08-20T11:15:59;25.60;99.90
55173;DHT22;41061;52.822;6.860;2022-08-20T11:18:25;25.40;99.90
55173;DHT22;41061;52.822;6.860;2022-08-20T11:20:51;25.10;99.90
55173;DHT22;41061;52.822;6.860;2022-08-20T11:23:17;25.30;99.90
55173;DHT22;41061;52.822;6.860;2022-08-20T11:25:43;25.40;99.90
55173;DHT22;41061;52.822;6.860;2022-08-20T11:28:09;25.60;99.90
55173;DHT22;41061;52.822;6.860;2022-08-20T11:30:36;25.80;99.90
55173;DHT22;41061;52.822;6.860;2022-08-20T11:33:02;25.90;99.90
55173;DHT22;41061;52.822;6.860;2022-08-20T11:35:30;26.00;98.30
55173;DHT22;41061;52.822;6.860;2022-08-20T11:37:57;26.20;97.20
55173;DHT22;41061;52.822;6.860;2022-08-20T11:40:23;26.10;96.90
55173;DHT22;41061;52.822;6.860;2022-08-20T11:42:49;26.00;96.30
55173;DHT22;41061;52.822;6.860;2022-08-20T11:45:15;26.00;97.60
55173;DHT22;41061;52.822;6.860;2022-08-20T11:47:41;25.90;97.90
55173;DHT22;41061;52.822;6.860;2022-08-20T11:50:16;25.60;93.60
55173;DHT22;41061;52.822;6.860;2022-08-20T11:52:42;25.40;99.90
55173;DHT22;41061;52.822;6.860;2022-08-20T11:55:10;25.10;99.90
55173;DHT22;41061;52.822;6.860;2022-08-20T11:57:40;25.10;99.90
55173;DHT22;41061;52.822;6.860;2022-08-20T12:00:08;25.10;96.20
55173;DHT22;41061;52.822;6.860;2022-08-20T12:02:36;25.20;96.30
55173;DHT22;41061;52.822;6.860;2022-08-20T12:05:02;25.20;96.60
55173;DHT22;41061;52.822;6.860;2022-08-20T12:07:28;25.50;98.20
55173;DHT22;41061;52.822;6.860;2022-08-20T12:09:54;25.50;96.50
55173;DHT22;41061;52.822;6.860;2022-08-20T12:12:21;25.40;99.60
55173;DHT22;41061;52.822;6.860;2022-08-20T12:14:49;25.40;99.90
55173;DHT22;41061;52.822;6.860;2022-08-20T12:17:33;25.50;99.40
55173;DHT22;41061;52.822;6.860;2022-08-20T12:20:03;25.60;99.90
55173;DHT22;41061;52.822;6.860;2022-08-20T12:22:29;25.60;98.70
55173;DHT22;41061;52.822;6.860;2022-08-20T12:24:55;25.50;99.90
55173;DHT22;41061;52.822;6.860;2022-08-20T12:27:26;25.20;99.90
55173;DHT22;41061;52.822;6.860;2022-08-20T12:29:54;25.20;99.90
55173;DHT22;41061;52.822;6.860;2022-08-20T12:32:22;25.40;99.90
55173;DHT22;41061;52.822;6.860;2022-08-20T12:34:49;25.70;99.40
55173;DHT22;41061;52.822;6.860;2022-08-20T12:37:20;25.80;99.10
55173;DHT22;41061;52.822;6.860;2022-08-20T12:39:51;26.00;98.70
55173;DHT22;41061;52.822;6.860;2022-08-20T12:42:18;26.30;97.50
55173;DHT22;41061;52.822;6.860;2022-08-20T12:44:44;26.40;96.30
55173;DHT22;41061;52.822;6.860;2022-08-20T12:49:38;25.70;99.90
55173;DHT22;41061;52.822;6.860;2022-08-20T12:52:04;25.50;99.90
55173;DHT22;41061;52.822;6.860;2022-08-20T12:54:30;25.50;98.00
55173;DHT22;41061;52.822;6.860;2022-08-20T12:56:56;25.80;97.50
55173;DHT22;41061;52.822;6.860;2022-08-20T12:59:23;26.00;96.80
55173;DHT22;41061;52.822;6.860;2022-08-20T13:01:50;25.90;95.00
55173;DHT22;41061;52.822;6.860;2022-08-20T13:04:16;25.80;95.00
55173;DHT22;41061;52.822;6.860;2022-08-20T13:06:42;25.60;95.70
55173;DHT22;41061;52.822;6.860;2022-08-20T13:09:07;25.60;96.60
55173;DHT22;41061;52.822;6.860;2022-08-20T13:11:33;25.80;97.30
55173;DHT22;41061;52.822;6.860;2022-08-20T13:13:59;26.10;96.30
55173;DHT22;41061;52.822;6.860;2022-08-20T13:16:24;26.40;95.30
55173;DHT22;41061;52.822;6.860;2022-08-20T13:18:50;26.60;93.50
55173;DHT22;41061;52.822;6.860;2022-08-20T13:21:16;26.50;92.90
55173;DHT22;41061;52.822;6.860;2022-08-20T13:23:41;26.60;91.70
55173;DHT22;41061;52.822;6.860;2022-08-20T13:26:07;26.70;91.10
55173;DHT22;41061;52.822;6.860;2022-08-20T13:28:33;26.70;91.80
55173;DHT22;41061;52.822;6.860;2022-08-20T13:30:58;26.80;92.80
55173;DHT22;41061;52.822;6.860;2022-08-20T13:33:27;27.10;92.40
55173;DHT22;41061;52.822;6.860;2022-08-20T13:35:54;27.20;91.90
55173;DHT22;41061;52.822;6.860;2022-08-20T13:38:19;27.10;90.80
55173;DHT22;41061;52.822;6.860;2022-08-20T13:40:45;26.90;91.20
55173;DHT22;41061;52.822;6.860;2022-08-20T13:43:11;26.70;91.50
55173;DHT22;41061;52.822;6.860;2022-08-20T13:45:38;26.70;91.60
55173;DHT22;41061;52.822;6.860;2022-08-20T13:48:04;26.80;91.00
55173;DHT22;41061;52.822;6.860;2022-08-20T13:50:31;26.90;91.80
55173;DHT22;41061;52.822;6.860;2022-08-20T13:52:56;27.10;91.50
55173;DHT22;41061;52.822;6.860;2022-08-20T13:55:23;27.20;91.30
55173;DHT22;41061;52.822;6.860;2022-08-20T13:57:50;27.50;91.80
55173;DHT22;41061;52.822;6.860;2022-08-20T14:00:23;27.60;90.80
55173;DHT22;41061;52.822;6.860;2022-08-20T14:02:49;27.70;90.00
55173;DHT22;41061;52.822;6.860;2022-08-20T14:05:15;27.70;88.30
55173;DHT22;41061;52.822;6.860;2022-08-20T14:07:42;27.50;86.00
55173;DHT22;41061;52.822;6.860;2022-08-20T14:10:15;27.40;88.80
55173;DHT22;41061;52.822;6.860;2022-08-20T14:12:41;27.30;88.00
55173;DHT22;41061;52.822;6.860;2022-08-20T14:15:07;27.50;86.30
55173;DHT22;41061;52.822;6.860;2022-08-20T14:17:42;27.40;85.60
55173;DHT22;41061;52.822;6.860;2022-08-20T14:20:09;27.50;87.30
55173;DHT22;41061;52.822;6.860;2022-08-20T14:22:35;27.60;85.30
55173;DHT22;41061;52.822;6.860;2022-08-20T14:25:01;27.60;85.40
55173;DHT22;41061;52.822;6.860;2022-08-20T14:27:29;27.60;84.70
55173;DHT22;41061;52.822;6.860;2022-08-20T14:29:55;27.60;82.70
55173;DHT22;41061;52.822;6.860;2022-08-20T14:32:21;27.70;82.20
55173;DHT22;41061;52.822;6.860;2022-08-20T14:34:47;27.70;82.80
55173;DHT22;41061;52.822;6.860;2022-08-20T14:37:20;27.80;82.90
55173;DHT22;41061;52.822;6.860;2022-08-20T14:39:49;27.90;80.60
55173;DHT22;41061;52.822;6.860;2022-08-20T14:42:15;27.70;80.30
55173;DHT22;41061;52.822;6.860;2022-08-20T14:44:41;27.50;87.20
55173;DHT22;41061;52.822;6.860;2022-08-20T14:49:36;27.00;89.60
55173;DHT22;41061;52.822;6.860;2022-08-20T14:52:03;27.10;87.90
55173;DHT22;41061;52.822;6.860;2022-08-20T14:54:29;27.30;85.90
55173;DHT22;41061;52.822;6.860;2022-08-20T14:56:57;27.50;86.00
55173;DHT22;41061;52.822;6.860;2022-08-20T14:59:23;27.60;82.90
55173;DHT22;41061;52.822;6.860;2022-08-20T15:01:49;27.60;79.60
55173;DHT22;41061;52.822;6.860;2022-08-20T15:04:15;27.40;80.90
55173;DHT22;41061;52.822;6.860;2022-08-20T15:06:46;27.20;83.70
55173;DHT22;41061;52.822;6.860;2022-08-20T15:09:12;27.10;83.70
55173;DHT22;41061;52.822;6.860;2022-08-20T15:11:38;27.10;82.30
55173;DHT22;41061;52.822;6.860;2022-08-20T15:14:06;27.20;82.00
55173;DHT22;41061;52.822;6.860;2022-08-20T15:16:32;27.20;81.00
55173;DHT22;41061;52.822;6.860;2022-08-20T15:18:58;27.10;80.70
55173;DHT22;41061;52.822;6.860;2022-08-20T15:21:24;26.90;83.30
55173;DHT22;41061;52.822;6.860;2022-08-20T15:23:50;26.60;92.30
55173;DHT22;41061;52.822;6.860;2022-08-20T15:26:16;26.50;92.10
55173;DHT22;41061;52.822;6.860;2022-08-20T15:28:42;26.40;90.70
55173;DHT22;41061;52.822;6.860;2022-08-20T15:31:09;26.60;90.80
55173;DHT22;41061;52.822;6.860;2022-08-20T15:33:35;26.60;90.70
55173;DHT22;41061;52.822;6.860;2022-08-20T15:36:01;26.80;88.90
55173;DHT22;41061;52.822;6.860;2022-08-20T15:38:26;26.80;87.80
55173;DHT22;41061;52.822;6.860;2022-08-20T15:40:52;27.00;80.10
55173;DHT22;41061;52.822;6.860;2022-08-20T15:43:18;27.10;77.20
55173;DHT22;41061;52.822;6.860;2022-08-20T15:45:43;27.20;76.70
55173;DHT22;41061;52.822;6.860;2022-08-20T15:48:17;27.30;74.40